createdAt,value
2019-04-25T00:00:38.092Z,59.61
2019-04-25T00:01:43.942Z,59.72
2019-04-25T00:02:48.352Z,59.60
2019-04-25T00:03:53.366Z,59.61
2019-04-25T00:04:57.223Z,59.62
2019-04-25T00:06:02.265Z,59.60
2019-04-25T00:07:06.418Z,59.75
2019-04-25T00:08:11.471Z,60.60
2019-04-25T00:09:16.994Z,60.70
2019-04-25T00:10:22.043Z,60.68
2019-04-25T00:11:25.863Z,60.84
2019-04-25T00:12:29.712Z,61.02
2019-04-25T00:13:33.344Z,61.14
2019-04-25T00:14:37.995Z,61.04
2019-04-25T00:15:44.465Z,61.08
2019-04-25T00:16:47.495Z,60.97
2019-04-25T00:17:52.190Z,60.78
2019-04-25T00:18:55.984Z,60.98
2019-04-25T00:20:01.474Z,61.45
2019-04-25T00:21:22.027Z,61.35
2019-04-25T00:22:31.658Z,61.20
2019-04-25T00:23:36.371Z,61.34
2019-04-25T00:24:43.281Z,61.50
2019-04-25T00:25:52.705Z,61.30
2019-04-25T00:26:56.510Z,61.03
2019-04-25T00:28:01.714Z,60.95
2019-04-25T00:29:05.571Z,61.27
2019-04-25T00:30:09.407Z,61.44
2019-04-25T00:31:13.837Z,61.66
2019-04-25T00:32:17.471Z,61.85
2019-04-25T00:33:21.645Z,61.68
2019-04-25T00:34:25.254Z,61.68
2019-04-25T00:35:28.922Z,61.57
2019-04-25T00:36:32.554Z,61.50
2019-04-25T00:37:36.137Z,61.37
2019-04-25T00:38:39.795Z,61.63
2019-04-25T00:39:45.141Z,61.32
2019-04-25T00:40:50.587Z,61.42
2019-04-25T00:41:54.901Z,61.67
2019-04-25T00:42:58.552Z,61.50
2019-04-25T00:44:02.445Z,62.02
2019-04-25T00:45:07.516Z,61.25
2019-04-25T00:46:11.455Z,61.25
2019-04-25T00:47:15.225Z,61.04
2019-04-25T00:48:18.894Z,61.14
2019-04-25T00:49:23.642Z,61.07
2019-04-25T00:50:27.389Z,61.05
2019-04-25T00:51:31.762Z,60.91
2019-04-25T00:52:35.603Z,61.11
2019-04-25T00:53:39.236Z,61.20
2019-04-25T00:54:43.161Z,61.39
2019-04-25T00:55:46.876Z,61.70
2019-04-25T00:56:52.401Z,61.95
2019-04-25T00:57:57.589Z,62.09
2019-04-25T00:59:11.823Z,62.37
2019-04-25T01:00:24.629Z,62.76
2019-04-25T01:01:46.866Z,63.55
2019-04-25T01:02:54.542Z,63.02
2019-04-25T01:03:58.176Z,62.41
2019-04-25T01:05:02.106Z,62.41
2019-04-25T01:06:05.748Z,62.35
2019-04-25T01:07:09.433Z,62.27
2019-04-25T01:08:13.092Z,62.37
2019-04-25T01:09:18.359Z,62.42
2019-04-25T01:10:23.109Z,62.26
2019-04-25T01:11:26.899Z,62.13
2019-04-25T01:12:31.389Z,62.03
2019-04-25T01:13:35.540Z,62.01
2019-04-25T01:14:39.199Z,62.04
2019-04-25T01:15:42.835Z,61.90
2019-04-25T01:16:46.540Z,62.06
2019-04-25T01:17:51.513Z,62.31
2019-04-25T01:18:55.657Z,62.61
2019-04-25T01:19:59.250Z,62.44
2019-04-25T01:21:04.389Z,62.66
2019-04-25T01:22:08.235Z,62.66
2019-04-25T01:23:11.904Z,62.66
2019-04-25T01:24:15.927Z,62.67
2019-04-25T01:25:19.562Z,62.50
2019-04-25T01:26:23.961Z,62.69
2019-04-25T01:27:27.771Z,62.64
2019-04-25T01:28:31.457Z,62.38
2019-04-25T01:29:35.184Z,62.13
2019-04-25T01:30:39.491Z,62.00
2019-04-25T01:31:43.501Z,62.71
2019-04-25T01:32:47.285Z,62.71
2019-04-25T01:33:50.956Z,62.73
2019-04-25T01:35:03.861Z,62.52
2019-04-25T01:36:13.320Z,62.52
2019-04-25T01:37:25.843Z,62.13
2019-04-25T01:38:39.918Z,62.65
2019-04-25T01:39:57.539Z,63.05
2019-04-25T01:41:03.355Z,63.05
2019-04-25T01:42:25.293Z,62.87
2019-04-25T01:43:48.435Z,62.80
2019-04-25T01:44:54.222Z,62.80
2019-04-25T01:45:58.479Z,62.84
2019-04-25T01:47:04.099Z,62.80
2019-04-25T01:48:08.036Z,62.85
2019-04-25T01:49:11.669Z,63.07
2019-04-25T01:50:15.314Z,62.96
2019-04-25T01:51:19.058Z,63.02
2019-04-25T01:52:23.523Z,63.22
2019-04-25T01:53:27.323Z,63.22
2019-04-25T01:54:30.952Z,63.13
2019-04-25T01:55:34.702Z,63.14
2019-04-25T01:56:38.403Z,63.07
2019-04-25T01:57:45.064Z,63.14
2019-04-25T01:58:47.379Z,63.20
2019-04-25T01:59:51.377Z,63.41
2019-04-25T02:00:56.380Z,63.41
2019-04-25T02:02:00.528Z,63.29
2019-04-25T02:03:04.648Z,63.67
2019-04-25T02:04:08.452Z,63.67
2019-04-25T02:05:13.894Z,63.41
2019-04-25T02:06:17.598Z,63.19
2019-04-25T02:07:21.200Z,63.10
2019-04-25T02:08:24.853Z,63.01
2019-04-25T02:09:28.481Z,62.85
2019-04-25T02:10:32.135Z,62.85
2019-04-25T02:11:37.432Z,63.50
2019-04-25T02:12:48.479Z,64.04
2019-04-25T02:13:54.558Z,64.12
2019-04-25T02:14:57.933Z,64.44
2019-04-25T02:16:01.941Z,64.32
2019-04-25T02:17:05.596Z,63.81
2019-04-25T02:18:09.657Z,64.11
2019-04-25T02:19:14.542Z,64.11
2019-04-25T02:20:18.304Z,64.10
2019-04-25T02:21:23.491Z,64.05
2019-04-25T02:22:27.250Z,64.12
2019-04-25T02:23:30.916Z,64.22
2019-04-25T02:24:34.581Z,64.27
2019-04-25T02:25:38.223Z,64.60
2019-04-25T02:26:41.856Z,64.44
2019-04-25T02:27:45.493Z,64.22
2019-04-25T02:28:49.568Z,64.22
2019-04-25T02:29:55.184Z,64.85
2019-04-25T02:31:00.790Z,64.85
2019-04-25T02:32:08.861Z,64.52
2019-04-25T02:33:09.997Z,64.51
2019-04-25T02:34:17.779Z,64.68
2019-04-25T02:35:18.970Z,64.74
2019-04-25T02:36:24.703Z,64.74
2019-04-25T02:37:27.983Z,64.73
2019-04-25T02:38:33.986Z,64.86
2019-04-25T02:39:37.716Z,64.86
2019-04-25T02:40:41.360Z,64.72
2019-04-25T02:41:45.022Z,64.72
2019-04-25T02:42:48.656Z,64.94
2019-04-25T02:43:56.331Z,64.94
2019-04-25T02:45:02.166Z,64.72
2019-04-25T02:46:15.198Z,65.13
2019-04-25T02:47:26.514Z,65.10
2019-04-25T02:48:34.545Z,65.16
2019-04-25T02:49:40.036Z,65.17
2019-04-25T02:50:58.641Z,65.62
2019-04-25T02:52:08.451Z,65.61
2019-04-25T02:53:28.443Z,66.08
2019-04-25T02:54:32.102Z,66.47
2019-04-25T02:55:37.605Z,66.27
2019-04-25T02:56:41.621Z,66.18
2019-04-25T02:57:45.252Z,66.04
2019-04-25T02:58:49.656Z,66.47
2019-04-25T02:59:54.706Z,66.50
2019-04-25T03:01:08.102Z,66.51
2019-04-25T03:02:07.116Z,66.09
2019-04-25T03:03:10.703Z,66.61
2019-04-25T03:04:14.641Z,66.73
2019-04-25T03:05:18.379Z,66.90
2019-04-25T03:06:22.042Z,67.05
2019-04-25T03:07:25.677Z,67.27
2019-04-25T03:08:29.315Z,67.52
2019-04-25T03:09:35.195Z,67.74
2019-04-25T03:10:38.356Z,67.72
2019-04-25T03:11:41.989Z,67.72
2019-04-25T03:12:46.067Z,67.44
2019-04-25T03:13:49.722Z,67.47
2019-04-25T03:14:54.944Z,67.48
2019-04-25T03:16:00.434Z,67.53
2019-04-25T03:17:05.213Z,67.50
2019-04-25T03:18:12.439Z,67.56
2019-04-25T03:19:34.053Z,67.28
2019-04-25T03:20:47.650Z,67.83
2019-04-25T03:22:00.126Z,67.77
2019-04-25T03:23:09.501Z,67.93
2019-04-25T03:24:16.818Z,67.86
2019-04-25T03:25:19.630Z,68.18
2019-04-25T03:26:23.421Z,68.16
2019-04-25T03:27:27.095Z,68.33
2019-04-25T03:28:31.530Z,68.45
2019-04-25T03:29:35.215Z,68.52
2019-04-25T03:30:38.923Z,68.97
2019-04-25T03:31:45.033Z,68.78
2019-04-25T03:32:51.382Z,68.51
2019-04-25T03:33:55.793Z,68.61
2019-04-25T03:34:59.073Z,68.60
2019-04-25T03:36:03.550Z,68.59
2019-04-25T03:37:08.082Z,68.46
2019-04-25T03:38:11.710Z,68.47
2019-04-25T03:39:16.552Z,68.37
2019-04-25T03:40:20.348Z,68.28
2019-04-25T03:41:24.561Z,68.30
2019-04-25T03:42:28.293Z,68.41
2019-04-25T03:43:33.235Z,68.75
2019-04-25T03:44:37.260Z,68.99
2019-04-25T03:45:40.962Z,69.14
2019-04-25T03:46:45.004Z,69.19
2019-04-25T03:47:48.566Z,69.33
2019-04-25T03:48:53.766Z,69.22
2019-04-25T03:49:57.640Z,69.10
2019-04-25T03:51:02.266Z,69.13
2019-04-25T03:52:06.539Z,69.10
2019-04-25T03:53:10.518Z,69.43
2019-04-25T03:54:14.392Z,69.73
2019-04-25T03:55:18.079Z,69.75
2019-04-25T03:56:21.747Z,69.50
2019-04-25T03:57:25.829Z,69.59
2019-04-25T03:58:29.835Z,69.56
2019-04-25T03:59:33.655Z,69.61
2019-04-25T04:00:37.352Z,69.78
2019-04-25T04:01:41.021Z,69.96
2019-04-25T04:02:44.670Z,70.13
2019-04-25T04:03:48.328Z,69.90
2019-04-25T04:04:53.619Z,69.90
2019-04-25T04:05:57.457Z,69.69
2019-04-25T04:07:01.147Z,69.39
2019-04-25T04:08:06.223Z,69.50
2019-04-25T04:09:10.137Z,69.18
2019-04-25T04:10:15.411Z,68.80
2019-04-25T04:11:19.132Z,68.84
2019-04-25T04:12:24.286Z,68.68
2019-04-25T04:13:28.027Z,68.54
2019-04-25T04:14:33.725Z,68.42
2019-04-25T04:15:37.543Z,68.29
2019-04-25T04:16:44.344Z,68.43
2019-04-25T04:18:01.804Z,68.29
2019-04-25T04:19:06.948Z,68.17
2019-04-25T04:20:13.869Z,67.88
2019-04-25T04:21:23.087Z,67.75
2019-04-25T04:22:34.789Z,67.56
2019-04-25T04:23:40.097Z,67.37
2019-04-25T04:24:45.423Z,67.38
2019-04-25T04:25:49.101Z,67.19
2019-04-25T04:27:10.624Z,67.72
2019-04-25T04:28:14.955Z,68.08
2019-04-25T04:29:18.704Z,68.19
2019-04-25T04:30:24.041Z,67.97
2019-04-25T04:31:27.778Z,67.54
2019-04-25T04:32:31.425Z,67.35
2019-04-25T04:33:35.015Z,67.27
2019-04-25T04:34:38.681Z,67.18
2019-04-25T04:35:43.896Z,67.27
2019-04-25T04:36:47.868Z,67.10
2019-04-25T04:37:51.504Z,66.75
2019-04-25T04:38:55.169Z,66.57
2019-04-25T04:39:58.813Z,66.63
2019-04-25T04:41:03.932Z,66.52
2019-04-25T04:42:08.363Z,66.67
2019-04-25T04:43:12.029Z,66.47
2019-04-25T04:44:16.492Z,66.53
2019-04-25T04:45:20.343Z,66.46
2019-04-25T04:46:24.175Z,66.27
2019-04-25T04:47:27.888Z,65.63
2019-04-25T04:48:31.872Z,65.48
2019-04-25T04:49:35.866Z,65.32
2019-04-25T04:50:39.551Z,65.30
2019-04-25T04:51:44.389Z,65.35
2019-04-25T04:52:48.193Z,65.43
2019-04-25T04:53:53.577Z,65.52
2019-04-25T04:55:06.410Z,65.67
2019-04-25T04:56:04.255Z,65.68
2019-04-25T04:57:18.422Z,65.66
2019-04-25T04:58:15.012Z,65.62
2019-04-25T04:59:19.079Z,65.60
2019-04-25T05:00:24.649Z,65.80
2019-04-25T05:01:29.992Z,66.13
2019-04-25T05:02:37.995Z,65.98
2019-04-25T05:03:59.434Z,65.68
2019-04-25T05:05:19.794Z,65.59
2019-04-25T05:06:27.774Z,65.51
2019-04-25T05:07:39.141Z,65.64
2019-04-25T05:08:44.417Z,65.80
2019-04-25T05:09:48.294Z,66.10
2019-04-25T05:10:51.965Z,65.83
2019-04-25T05:11:55.616Z,65.79
2019-04-25T05:12:59.258Z,65.64
2019-04-25T05:14:04.021Z,65.57
2019-04-25T05:15:12.603Z,65.51
2019-04-25T05:16:17.712Z,65.61
2019-04-25T05:17:21.863Z,65.55
2019-04-25T05:18:37.547Z,65.43
2019-04-25T05:19:31.405Z,65.40
2019-04-25T05:20:35.633Z,65.19
2019-04-25T05:21:39.378Z,65.28
2019-04-25T05:22:44.541Z,64.97
2019-04-25T05:23:48.317Z,64.76
2019-04-25T05:24:53.537Z,64.91
2019-04-25T05:25:57.361Z,65.04
2019-04-25T05:27:00.990Z,64.97
2019-04-25T05:28:05.395Z,65.00
2019-04-25T05:29:09.029Z,65.17
2019-04-25T05:30:15.671Z,65.35
2019-04-25T05:31:21.398Z,65.43
2019-04-25T05:32:25.242Z,65.57
2019-04-25T05:33:29.033Z,65.61
2019-04-25T05:34:34.224Z,65.33
2019-04-25T05:35:38.150Z,65.29
2019-04-25T05:36:41.813Z,64.96
2019-04-25T05:37:45.827Z,64.57
2019-04-25T05:38:49.487Z,63.87
2019-04-25T05:39:53.631Z,63.87
2019-04-25T05:40:58.900Z,63.69
2019-04-25T05:42:05.196Z,63.33
2019-04-25T05:43:11.233Z,63.33
2019-04-25T05:44:15.787Z,63.20
2019-04-25T05:45:23.553Z,63.25
2019-04-25T05:46:27.747Z,62.91
2019-04-25T05:47:31.382Z,62.55
2019-04-25T05:48:35.050Z,62.40
2019-04-25T05:49:38.678Z,62.49
2019-04-25T05:50:43.694Z,62.57
2019-04-25T05:51:47.486Z,62.62
2019-04-25T05:52:51.121Z,62.70
2019-04-25T05:53:55.231Z,62.09
2019-04-25T05:54:58.893Z,62.09
2019-04-25T05:56:04.128Z,62.28
2019-04-25T05:57:07.912Z,62.28
2019-04-25T05:58:11.576Z,62.37
2019-04-25T05:59:15.218Z,62.02
2019-04-25T06:00:19.376Z,61.83
2019-04-25T06:01:24.626Z,61.57
2019-04-25T06:02:28.400Z,61.16
2019-04-25T06:03:31.992Z,61.20
2019-04-25T06:04:37.201Z,61.20
2019-04-25T06:05:40.859Z,60.90
2019-04-25T06:06:44.675Z,60.61
2019-04-25T06:07:48.375Z,59.99
2019-04-25T06:08:56.087Z,60.10
2019-04-25T06:10:19.747Z,59.95
2019-04-25T06:11:28.110Z,59.94
2019-04-25T06:12:33.610Z,59.28
2019-04-25T06:13:43.276Z,59.20
2019-04-25T06:14:46.789Z,58.94
2019-04-25T06:15:53.333Z,58.62
2019-04-25T06:16:58.678Z,58.60
2019-04-25T06:18:04.117Z,58.39
2019-04-25T06:19:18.024Z,58.15
2019-04-25T06:20:25.790Z,58.33
2019-04-25T06:21:29.397Z,58.36
2019-04-25T06:22:47.046Z,58.07
2019-04-25T06:24:08.801Z,57.84
2019-04-25T06:25:16.224Z,57.64
2019-04-25T06:26:33.114Z,57.72
2019-04-25T06:27:27.027Z,59.03
2019-04-25T06:28:34.551Z,59.90
2019-04-25T06:29:37.450Z,59.81
2019-04-25T06:30:41.155Z,59.49
2019-04-25T06:31:44.794Z,59.10
2019-04-25T06:32:48.456Z,58.81
2019-04-25T06:33:53.818Z,58.54
2019-04-25T06:34:57.981Z,58.08
2019-04-25T06:36:01.563Z,57.61
2019-04-25T06:37:06.198Z,57.94
2019-04-25T06:38:10.023Z,58.06
2019-04-25T06:39:14.189Z,57.97
2019-04-25T06:40:19.686Z,57.03
2019-04-25T06:41:25.854Z,57.56
2019-04-25T06:42:29.559Z,57.45
2019-04-25T06:43:34.239Z,57.04
2019-04-25T06:44:45.559Z,56.17
2019-04-25T06:45:55.241Z,55.84
2019-04-25T06:47:00.698Z,55.63
2019-04-25T06:48:21.273Z,55.43
2019-04-25T06:49:27.770Z,54.98
2019-04-25T06:50:31.517Z,55.28
2019-04-25T06:51:51.950Z,55.15
2019-04-25T06:52:55.616Z,54.79
2019-04-25T06:53:59.253Z,54.68
2019-04-25T06:55:03.392Z,53.94
2019-04-25T06:56:07.111Z,53.46
2019-04-25T06:57:10.799Z,53.89
2019-04-25T06:58:14.735Z,52.61
2019-04-25T06:59:18.458Z,52.67
2019-04-25T07:00:24.989Z,51.58
2019-04-25T07:01:28.933Z,51.95
2019-04-25T07:02:35.050Z,50.90
2019-04-25T07:03:38.658Z,50.39
2019-04-25T07:04:43.484Z,50.63
2019-04-25T07:05:47.691Z,50.62
2019-04-25T07:06:51.335Z,50.17
2019-04-25T07:07:55.009Z,50.62
2019-04-25T07:08:58.599Z,49.99
2019-04-25T07:10:03.615Z,50.86
2019-04-25T07:11:07.461Z,49.45
2019-04-25T07:12:11.118Z,49.14
2019-04-25T07:13:15.008Z,48.86
2019-04-25T07:14:18.640Z,48.35
2019-04-25T07:15:24.720Z,47.67
2019-04-25T07:16:27.974Z,47.21
2019-04-25T07:17:31.599Z,46.82
2019-04-25T07:18:37.086Z,46.87
2019-04-25T07:19:40.638Z,47.47
2019-04-25T07:20:45.354Z,46.38
2019-04-25T07:21:49.097Z,46.11
2019-04-25T07:22:53.734Z,45.45
2019-04-25T07:23:57.492Z,45.37
2019-04-25T07:25:01.148Z,44.40
2019-04-25T07:26:06.640Z,44.21
2019-04-25T07:27:28.414Z,44.58
2019-04-25T07:28:36.940Z,44.88
2019-04-25T07:29:43.343Z,44.82
2019-04-25T07:31:00.684Z,44.87
2019-04-25T07:32:12.226Z,43.87
2019-04-25T07:33:29.893Z,43.62
2019-04-25T07:34:34.148Z,43.72
2019-04-25T07:35:38.777Z,43.09
2019-04-25T07:36:42.430Z,43.20
2019-04-25T07:37:46.060Z,42.85
2019-04-25T07:38:49.722Z,43.44
2019-04-25T07:39:54.214Z,43.48
2019-04-25T07:40:57.970Z,42.80
2019-04-25T07:42:01.596Z,42.60
2019-04-25T07:43:05.230Z,42.68
2019-04-25T07:44:08.876Z,42.82
2019-04-25T07:45:14.080Z,42.73
2019-04-25T07:46:17.873Z,42.04
2019-04-25T07:47:21.558Z,41.57
2019-04-25T07:48:26.680Z,41.38
2019-04-25T07:49:30.544Z,40.65
2019-04-25T07:50:35.356Z,40.24
2019-04-25T07:51:39.152Z,40.86
2019-04-25T07:52:44.220Z,39.87
2019-04-25T07:53:48.113Z,41.00
2019-04-25T07:54:51.739Z,40.37
2019-04-25T07:55:55.370Z,39.84
2019-04-25T07:56:59.062Z,39.35
2019-04-25T07:58:03.180Z,38.81
2019-04-25T07:59:07.503Z,38.53
2019-04-25T08:00:14.693Z,38.20
2019-04-25T08:01:18.341Z,38.23
2019-04-25T08:02:23.318Z,37.68
2019-04-25T08:03:28.390Z,37.05
2019-04-25T08:04:32.345Z,36.57
2019-04-25T08:05:36.687Z,36.97
2019-04-25T08:06:41.832Z,35.97
2019-04-25T08:07:45.836Z,35.86
2019-04-25T08:08:49.486Z,35.28
2019-04-25T08:09:54.212Z,35.09
2019-04-25T08:11:04.067Z,35.74
2019-04-25T08:12:07.845Z,34.09
2019-04-25T08:13:11.478Z,33.74
2019-04-25T08:14:24.242Z,33.26
2019-04-25T08:15:29.972Z,32.57
2019-04-25T08:16:35.712Z,31.90
2019-04-25T08:17:47.053Z,31.05
2019-04-25T08:18:51.043Z,30.46
2019-04-25T08:19:54.647Z,31.12
2019-04-25T08:20:59.081Z,30.66
2019-04-25T08:22:03.658Z,30.17
2019-04-25T08:23:07.385Z,30.23
2019-04-25T08:24:11.062Z,30.15
2019-04-25T08:25:15.212Z,29.85
2019-04-25T08:26:18.849Z,29.28
2019-04-25T08:27:23.183Z,29.10
2019-04-25T08:28:26.911Z,28.37
2019-04-25T08:29:31.662Z,27.97
2019-04-25T08:30:36.668Z,28.85
2019-04-25T08:31:40.753Z,27.71
2019-04-25T08:32:44.736Z,27.50
2019-04-25T08:33:48.750Z,27.20
2019-04-25T08:34:54.126Z,27.68
2019-04-25T08:36:06.644Z,26.85
2019-04-25T08:37:04.088Z,26.71
2019-04-25T08:38:07.850Z,26.62
2019-04-25T08:39:14.358Z,26.47
2019-04-25T08:40:18.608Z,25.36
2019-04-25T08:41:23.815Z,27.02
2019-04-25T08:42:27.662Z,26.98
2019-04-25T08:43:32.432Z,27.74
2019-04-25T08:44:36.920Z,25.71
2019-04-25T08:45:40.804Z,25.29
2019-04-25T08:46:48.440Z,24.95
2019-04-25T08:47:49.788Z,25.34
2019-04-25T08:49:11.770Z,25.46
2019-04-25T08:50:28.944Z,25.77
2019-04-25T08:51:31.421Z,24.97
2019-04-25T08:52:36.372Z,25.04
2019-04-25T08:53:41.734Z,25.40
2019-04-25T08:54:49.695Z,25.00
2019-04-25T08:55:58.024Z,23.84
2019-04-25T08:57:04.342Z,24.19
2019-04-25T08:58:15.549Z,24.55
2019-04-25T08:59:44.295Z,23.91
2019-04-25T09:00:59.241Z,23.75
2019-04-25T09:02:16.863Z,23.32
2019-04-25T09:03:24.110Z,23.69
2019-04-25T09:04:36.015Z,23.03
2019-04-25T09:05:44.088Z,23.42
2019-04-25T09:06:47.604Z,23.25
2019-04-25T09:07:51.358Z,22.87
2019-04-25T09:08:55.011Z,23.04
2019-04-25T09:09:59.058Z,22.93
2019-04-25T09:11:03.489Z,22.53
2019-04-25T09:12:07.266Z,22.21
2019-04-25T09:13:10.928Z,22.46
2019-04-25T09:14:14.866Z,21.90
2019-04-25T09:15:18.507Z,22.83
2019-04-25T09:16:23.820Z,23.52
2019-04-25T09:17:27.580Z,23.95
2019-04-25T09:18:31.272Z,23.23
2019-04-25T09:19:36.207Z,22.04
2019-04-25T09:20:42.065Z,23.14
2019-04-25T09:21:49.378Z,22.88
2019-04-25T09:22:51.007Z,22.73
2019-04-25T09:23:54.671Z,22.13
2019-04-25T09:24:58.337Z,23.19
2019-04-25T09:26:02.004Z,22.98
2019-04-25T09:27:05.726Z,23.53
2019-04-25T09:28:09.440Z,23.13
2019-04-25T09:29:17.589Z,22.84
2019-04-25T09:30:18.682Z,23.10
2019-04-25T09:31:23.632Z,23.18
2019-04-25T09:32:27.474Z,22.93
2019-04-25T09:33:31.109Z,22.58
2019-04-25T09:34:35.558Z,22.25
2019-04-25T09:35:39.689Z,23.44
2019-04-25T09:36:43.934Z,22.71
2019-04-25T09:37:48.660Z,22.52
2019-04-25T09:38:53.936Z,22.58
2019-04-25T09:39:59.254Z,23.12
2019-04-25T09:41:03.826Z,22.50
2019-04-25T09:42:07.827Z,23.28
2019-04-25T09:43:11.471Z,23.11
2019-04-25T09:44:16.895Z,22.35
2019-04-25T09:45:33.333Z,22.50
2019-04-25T09:46:37.684Z,22.45
2019-04-25T09:47:43.782Z,22.45
2019-04-25T09:48:55.541Z,22.45
2019-04-25T09:49:59.976Z,22.42
2019-04-25T09:51:05.680Z,22.45
2019-04-25T09:52:11.068Z,23.80
2019-04-25T09:53:23.273Z,23.08
2019-04-25T09:54:40.936Z,24.47
2019-04-25T09:55:55.134Z,23.50
2019-04-25T09:57:16.652Z,22.79
2019-04-25T09:58:38.376Z,22.10
2019-04-25T09:59:43.614Z,21.90
2019-04-25T10:00:49.047Z,22.56
2019-04-25T10:01:52.689Z,22.81
2019-04-25T10:02:56.383Z,21.83
2019-04-25T10:04:00.019Z,21.99
2019-04-25T10:05:04.858Z,22.05
2019-04-25T10:06:08.521Z,22.68
2019-04-25T10:07:12.254Z,21.31
2019-04-25T10:08:15.921Z,21.75
2019-04-25T10:09:19.929Z,21.62
2019-04-25T10:10:24.148Z,21.95
2019-04-25T10:11:28.884Z,21.69
2019-04-25T10:12:34.125Z,21.92
2019-04-25T10:13:38.506Z,23.16
2019-04-25T10:14:56.729Z,21.25
2019-04-25T10:16:06.243Z,20.78
2019-04-25T10:17:09.908Z,21.25
2019-04-25T10:18:14.309Z,21.83
2019-04-25T10:19:18.263Z,21.05
2019-04-25T10:20:23.194Z,20.76
2019-04-25T10:21:27.079Z,20.91
2019-04-25T10:22:30.798Z,20.46
2019-04-25T10:23:34.729Z,20.17
2019-04-25T10:24:39.647Z,20.06
2019-04-25T10:25:45.003Z,19.98
2019-04-25T10:26:48.808Z,19.74
2019-04-25T10:27:53.790Z,19.72
2019-04-25T10:28:57.545Z,20.21
2019-04-25T10:30:14.547Z,20.18
2019-04-25T10:31:06.599Z,20.17
2019-04-25T10:32:11.154Z,21.30
2019-04-25T10:33:17.155Z,21.22
2019-04-25T10:34:20.796Z,21.46
2019-04-25T10:35:24.434Z,21.48
2019-04-25T10:36:28.486Z,21.96
2019-04-25T10:37:33.643Z,21.62
2019-04-25T10:38:38.171Z,21.46
2019-04-25T10:39:43.813Z,21.35
2019-04-25T10:40:48.588Z,21.79
2019-04-25T10:41:54.035Z,21.37
2019-04-25T10:42:58.076Z,21.03
2019-04-25T10:44:03.338Z,21.77
2019-04-25T10:45:20.243Z,21.64
2019-04-25T10:46:14.138Z,21.47
2019-04-25T10:47:18.069Z,21.61
2019-04-25T10:48:21.752Z,21.78
2019-04-25T10:49:25.352Z,21.65
2019-04-25T10:50:28.983Z,21.72
2019-04-25T10:51:34.171Z,21.59
2019-04-25T10:52:38.991Z,21.46
2019-04-25T10:53:45.623Z,21.79
2019-04-25T10:54:48.798Z,21.46
2019-04-25T10:55:52.428Z,21.27
2019-04-25T10:56:56.115Z,20.64
2019-04-25T10:57:59.756Z,20.78
2019-04-25T10:59:04.229Z,20.82
2019-04-25T11:00:18.194Z,20.46
2019-04-25T11:01:21.928Z,20.40
2019-04-25T11:02:25.916Z,20.33
2019-04-25T11:03:41.899Z,20.64
2019-04-25T11:04:48.839Z,20.95
2019-04-25T11:05:55.670Z,21.12
2019-04-25T11:06:58.886Z,21.76
2019-04-25T11:08:04.264Z,21.83
2019-04-25T11:09:13.787Z,22.54
2019-04-25T11:10:18.740Z,22.46
2019-04-25T11:11:24.096Z,23.05
2019-04-25T11:12:27.806Z,23.18
2019-04-25T11:13:33.915Z,23.16
2019-04-25T11:14:37.539Z,23.60
2019-04-25T11:15:41.966Z,23.85
2019-04-25T11:16:46.684Z,24.28
2019-04-25T11:17:50.422Z,24.11
2019-04-25T11:18:54.825Z,23.59
2019-04-25T11:19:58.522Z,23.68
2019-04-25T11:21:05.746Z,23.95
2019-04-25T11:22:07.546Z,24.00
2019-04-25T11:23:11.199Z,24.03
2019-04-25T11:24:14.874Z,24.33
2019-04-25T11:25:18.499Z,24.35
2019-04-25T11:26:22.296Z,24.24
2019-04-25T11:27:26.284Z,24.74
2019-04-25T11:28:29.909Z,25.13
2019-04-25T11:29:34.186Z,25.35
2019-04-25T11:30:38.077Z,25.37
2019-04-25T11:31:44.816Z,25.34
2019-04-25T11:32:48.736Z,25.59
2019-04-25T11:33:54.281Z,25.79
2019-04-25T11:34:57.797Z,26.04
2019-04-25T11:36:01.452Z,26.04
2019-04-25T11:37:05.893Z,25.97
2019-04-25T11:38:11.588Z,25.91
2019-04-25T11:39:23.918Z,25.99
2019-04-25T11:40:32.515Z,25.55
2019-04-25T11:41:36.172Z,25.47
2019-04-25T11:42:39.906Z,25.93
2019-04-25T11:43:46.060Z,26.66
2019-04-25T11:44:49.738Z,26.92
2019-04-25T11:45:55.567Z,27.39
2019-04-25T11:46:59.003Z,27.12
2019-04-25T11:48:02.640Z,27.18
2019-04-25T11:49:06.463Z,26.89
2019-04-25T11:50:10.663Z,27.12
2019-04-25T11:51:14.346Z,27.47
2019-04-25T11:52:27.262Z,27.49
2019-04-25T11:53:25.016Z,27.42
2019-04-25T11:54:28.860Z,27.43
2019-04-25T11:55:32.668Z,27.15
2019-04-25T11:56:36.427Z,27.01
2019-04-25T11:57:40.079Z,27.30
2019-04-25T11:58:45.626Z,27.04
2019-04-25T11:59:50.492Z,26.39
2019-04-25T12:00:57.840Z,26.54
2019-04-25T12:01:59.825Z,27.56
2019-04-25T12:03:03.727Z,27.14
2019-04-25T12:04:07.524Z,27.38
2019-04-25T12:05:11.277Z,27.40
2019-04-25T12:06:14.907Z,27.29
2019-04-25T12:07:18.604Z,27.26
2019-04-25T12:08:22.320Z,27.27
2019-04-25T12:09:26.047Z,28.00
2019-04-25T12:10:30.249Z,27.43
2019-04-25T12:11:34.381Z,27.49
2019-04-25T12:12:38.458Z,27.58
2019-04-25T12:13:44.555Z,27.55
2019-04-25T12:14:47.654Z,27.66
2019-04-25T12:15:51.852Z,28.04
2019-04-25T12:16:56.259Z,27.77
2019-04-25T12:18:00.010Z,27.29
2019-04-25T12:19:04.794Z,27.20
2019-04-25T12:20:08.604Z,26.86
2019-04-25T12:21:13.599Z,26.91
2019-04-25T12:22:17.371Z,27.13
2019-04-25T12:23:21.119Z,27.13
2019-04-25T12:24:24.836Z,27.55
2019-04-25T12:25:28.431Z,27.73
2019-04-25T12:26:33.679Z,27.38
2019-04-25T12:27:37.404Z,27.41
2019-04-25T12:28:41.062Z,27.57
2019-04-25T12:29:45.846Z,27.74
2019-04-25T12:30:49.670Z,27.47
2019-04-25T12:31:54.781Z,27.54
2019-04-25T12:32:59.161Z,27.35
2019-04-25T12:34:03.453Z,27.55
2019-04-25T12:35:07.513Z,28.04
2019-04-25T12:36:11.141Z,27.96
2019-04-25T12:37:14.779Z,27.97
2019-04-25T12:38:20.365Z,27.96
2019-04-25T12:39:24.347Z,28.04
2019-04-25T12:40:28.137Z,28.12
2019-04-25T12:41:31.774Z,28.24
2019-04-25T12:42:35.602Z,28.10
2019-04-25T12:43:40.872Z,28.66
2019-04-25T12:45:01.510Z,28.65
2019-04-25T12:46:09.645Z,28.43
2019-04-25T12:47:14.881Z,28.51
2019-04-25T12:48:18.536Z,28.22
2019-04-25T12:49:23.831Z,28.51
2019-04-25T12:50:27.605Z,28.44
2019-04-25T12:51:31.266Z,28.37
2019-04-25T12:52:34.897Z,28.62
2019-04-25T12:53:38.534Z,28.36
2019-04-25T12:54:44.023Z,28.37
2019-04-25T12:55:48.973Z,28.21
2019-04-25T12:56:53.725Z,28.08
2019-04-25T12:57:58.179Z,28.26
2019-04-25T12:59:02.242Z,28.29
2019-04-25T13:00:06.764Z,27.63
2019-04-25T13:01:10.837Z,28.25
2019-04-25T13:02:14.545Z,27.91
2019-04-25T13:03:18.190Z,27.93
2019-04-25T13:04:21.828Z,27.96
2019-04-25T13:05:25.471Z,27.72
2019-04-25T13:06:29.155Z,26.93
2019-04-25T13:07:32.779Z,27.16
2019-04-25T13:08:36.437Z,26.99
2019-04-25T13:09:40.079Z,27.43
2019-04-25T13:10:44.576Z,27.17
2019-04-25T13:11:48.462Z,27.26
2019-04-25T13:12:55.227Z,27.87
2019-04-25T13:13:57.460Z,27.54
2019-04-25T13:15:01.133Z,27.84
2019-04-25T13:16:06.978Z,27.65
2019-04-25T13:17:10.669Z,27.69
2019-04-25T13:18:14.328Z,28.76
2019-04-25T13:19:23.742Z,28.50
2019-04-25T13:20:23.348Z,29.28
2019-04-25T13:21:26.977Z,28.68
2019-04-25T13:22:30.644Z,28.35
2019-04-25T13:23:34.338Z,28.72
2019-04-25T13:24:37.985Z,28.52
2019-04-25T13:25:41.643Z,28.32
2019-04-25T13:26:46.935Z,28.07
2019-04-25T13:27:58.545Z,28.04
2019-04-25T13:29:21.261Z,28.50
2019-04-25T13:30:43.005Z,27.83
2019-04-25T13:31:48.495Z,27.35
2019-04-25T13:33:08.956Z,27.52
2019-04-25T13:34:14.250Z,27.67
2019-04-25T13:35:23.514Z,27.62
2019-04-25T13:36:27.581Z,27.64
2019-04-25T13:37:31.233Z,27.62
2019-04-25T13:38:34.910Z,27.54
2019-04-25T13:39:39.515Z,27.72
2019-04-25T13:40:43.176Z,27.71
2019-04-25T13:41:46.893Z,27.48
2019-04-25T13:42:50.460Z,28.55
2019-04-25T13:43:54.750Z,28.75
2019-04-25T13:44:58.587Z,28.86
2019-04-25T13:46:02.352Z,29.14
2019-04-25T13:47:06.797Z,29.20
2019-04-25T13:48:10.732Z,28.86
2019-04-25T13:49:14.968Z,28.43
2019-04-25T13:50:18.618Z,27.96
2019-04-25T13:51:24.475Z,28.08
2019-04-25T13:52:28.927Z,28.07
2019-04-25T13:53:33.539Z,28.16
2019-04-25T13:54:37.380Z,27.96
2019-04-25T13:55:40.992Z,28.47
2019-04-25T13:56:44.572Z,28.63
2019-04-25T13:57:48.295Z,29.15
2019-04-25T13:58:51.956Z,29.04
2019-04-25T13:59:55.656Z,29.27
2019-04-25T14:00:59.550Z,29.28
2019-04-25T14:02:04.826Z,29.43
2019-04-25T14:03:08.490Z,29.29